Aviation Digital Data Service (ADDS)

Output produced by TAFs form (0204 UTC 19 July 2018)
found at http://www.aviationweather.gov/adds/tafs/
 
METAR text: RJAW 190100Z 13006KT 100V160 9999 SCT020 BKN230 29/25 Q1010 RMK 3CU020 A2983
Conditions at: RJAW (IWOJIMA (JMSDF) , JP) observed 0100 UTC 19 July 2018
Temperature: 29.0°C (84°F)
Dewpoint: 25.0°C (77°F) [RH = 79%]
Pressure (altimeter): 29.82 inches Hg (1010.0 mb)
Winds: from the SE (130 degrees) at 7 MPH (6 knots; 3.1 m/s)
Visibility: 6 or more miles (10+ km)
Ceiling: 23000 feet AGL
Clouds: scattered clouds at 2000 feet AGL
broken clouds at 23000 feet AGL
Weather: no significant weather observed at this time